sensor_id;sensor_type;location;lat;lon;timestamp;temperature;humidity
70867;HTU21D;58487;53.474;49.470;2024-01-27T00:01:44;-9.09;72.71
70867;HTU21D;58487;53.474;49.470;2024-01-27T00:04:10;-9.17;72.48
70867;HTU21D;58487;53.474;49.470;2024-01-27T00:06:36;-9.13;72.32
70867;HTU21D;58487;53.474;49.470;2024-01-27T00:09:03;-9.01;71.58
70867;HTU21D;58487;53.474;49.470;2024-01-27T00:11:31;-8.97;71.77
70867;HTU21D;58487;53.474;49.470;2024-01-27T00:13:57;-8.92;71.05
70867;HTU21D;58487;53.474;49.470;2024-01-27T00:16:24;-8.85;71.54
70867;HTU21D;58487;53.474;49.470;2024-01-27T00:18:50;-8.89;70.12
70867;HTU21D;58487;53.474;49.470;2024-01-27T00:21:17;-8.96;71.27
70867;HTU21D;58487;53.474;49.470;2024-01-27T00:23:43;-9.01;71.00
70867;HTU21D;58487;53.474;49.470;2024-01-27T00:26:09;-9.04;71.50
70867;HTU21D;58487;53.474;49.470;2024-01-27T00:28:35;-8.97;72.09
70867;HTU21D;58487;53.474;49.470;2024-01-27T00:31:01;-8.82;71.03
70867;HTU21D;58487;53.474;49.470;2024-01-27T00:33:26;-8.74;71.55
70867;HTU21D;58487;53.474;49.470;2024-01-27T00:35:52;-8.66;72.03
70867;HTU21D;58487;53.474;49.470;2024-01-27T00:38:19;-8.72;70.48
70867;HTU21D;58487;53.474;49.470;2024-01-27T00:40:45;-8.75;70.42
70867;HTU21D;58487;53.474;49.470;2024-01-27T00:43:11;-8.74;71.48
70867;HTU21D;58487;53.474;49.470;2024-01-27T00:45:37;-8.77;71.06
70867;HTU21D;58487;53.474;49.470;2024-01-27T00:48:04;-8.77;70.36
70867;HTU21D;58487;53.474;49.470;2024-01-27T00:50:30;-8.73;71.14
70867;HTU21D;58487;53.474;49.470;2024-01-27T00:52:56;-8.72;71.13
70867;HTU21D;58487;53.474;49.470;2024-01-27T00:55:22;-8.73;72.19
70867;HTU21D;58487;53.474;49.470;2024-01-27T00:57:48;-8.75;72.48
70867;HTU21D;58487;53.474;49.470;2024-01-27T01:00:14;-8.80;73.07
70867;HTU21D;58487;53.474;49.470;2024-01-27T01:02:40;-8.84;72.80
70867;HTU21D;58487;53.474;49.470;2024-01-27T01:05:06;-8.97;73.69
70867;HTU21D;58487;53.474;49.470;2024-01-27T01:07:33;-9.12;73.89
70867;HTU21D;58487;53.474;49.470;2024-01-27T01:09:59;-9.25;73.27
70867;HTU21D;58487;53.474;49.470;2024-01-27T01:12:25;-9.33;73.84
70867;HTU21D;58487;53.474;49.470;2024-01-27T01:14:52;-9.32;73.80
70867;HTU21D;58487;53.474;49.470;2024-01-27T01:17:18;-9.36;75.26
70867;HTU21D;58487;53.474;49.470;2024-01-27T01:19:44;-9.34;75.72
70867;HTU21D;58487;53.474;49.470;2024-01-27T01:22:10;-9.33;75.60
70867;HTU21D;58487;53.474;49.470;2024-01-27T01:24:36;-9.27;74.62
70867;HTU21D;58487;53.474;49.470;2024-01-27T01:27:03;-9.25;74.81
70867;HTU21D;58487;53.474;49.470;2024-01-27T01:29:29;-9.39;74.44
70867;HTU21D;58487;53.474;49.470;2024-01-27T01:31:56;-9.40;74.80
70867;HTU21D;58487;53.474;49.470;2024-01-27T01:34:22;-9.40;75.78
70867;HTU21D;58487;53.474;49.470;2024-01-27T01:36:48;-9.32;75.22
70867;HTU21D;58487;53.474;49.470;2024-01-27T01:39:14;-9.29;76.14
70867;HTU21D;58487;53.474;49.470;2024-01-27T01:41:40;-9.33;75.34
70867;HTU21D;58487;53.474;49.470;2024-01-27T01:44:07;-9.33;75.27
70867;HTU21D;58487;53.474;49.470;2024-01-27T01:46:34;-9.33;75.38
70867;HTU21D;58487;53.474;49.470;2024-01-27T01:49:00;-9.36;77.51
70867;HTU21D;58487;53.474;49.470;2024-01-27T01:51:27;-9.46;75.24
70867;HTU21D;58487;53.474;49.470;2024-01-27T01:53:57;-9.48;73.66
70867;HTU21D;58487;53.474;49.470;2024-01-27T01:56:24;-9.48;75.17
70867;HTU21D;58487;53.474;49.470;2024-01-27T01:58:50;-9.39;74.20
70867;HTU21D;58487;53.474;49.470;2024-01-27T02:01:20;-9.25;75.55
70867;HTU21D;58487;53.474;49.470;2024-01-27T02:03:56;-9.24;75.45
70867;HTU21D;58487;53.474;49.470;2024-01-27T02:06:23;-9.19;77.11
70867;HTU21D;58487;53.474;49.470;2024-01-27T02:08:49;-9.16;77.23
70867;HTU21D;58487;53.474;49.470;2024-01-27T02:11:16;-9.20;77.03
70867;HTU21D;58487;53.474;49.470;2024-01-27T02:13:42;-9.18;75.72
70867;HTU21D;58487;53.474;49.470;2024-01-27T02:16:09;-9.39;78.48
70867;HTU21D;58487;53.474;49.470;2024-01-27T02:18:35;-9.53;76.50
70867;HTU21D;58487;53.474;49.470;2024-01-27T02:21:01;-9.47;77.15
70867;HTU21D;58487;53.474;49.470;2024-01-27T02:23:27;-9.51;77.29
70867;HTU21D;58487;53.474;49.470;2024-01-27T02:25:54;-9.37;75.99
70867;HTU21D;58487;53.474;49.470;2024-01-27T02:28:20;-9.34;73.64
70867;HTU21D;58487;53.474;49.470;2024-01-27T02:30:46;-9.30;73.36
70867;HTU21D;58487;53.474;49.470;2024-01-27T02:33:12;-9.43;75.95
70867;HTU21D;58487;53.474;49.470;2024-01-27T02:35:38;-9.44;78.18
70867;HTU21D;58487;53.474;49.470;2024-01-27T02:38:04;-9.34;77.72
70867;HTU21D;58487;53.474;49.470;2024-01-27T02:40:31;-9.26;77.45
70867;HTU21D;58487;53.474;49.470;2024-01-27T02:42:57;-9.28;76.12
70867;HTU21D;58487;53.474;49.470;2024-01-27T02:45:23;-9.27;76.30
70867;HTU21D;58487;53.474;49.470;2024-01-27T02:47:49;-9.29;75.66
70867;HTU21D;58487;53.474;49.470;2024-01-27T02:50:15;-9.31;75.47
70867;HTU21D;58487;53.474;49.470;2024-01-27T02:52:42;-9.32;76.34
70867;HTU21D;58487;53.474;49.470;2024-01-27T02:55:08;-9.30;77.55
70867;HTU21D;58487;53.474;49.470;2024-01-27T02:57:34;-9.32;77.56
70867;HTU21D;58487;53.474;49.470;2024-01-27T03:00:00;-9.29;78.59
70867;HTU21D;58487;53.474;49.470;2024-01-27T03:02:26;-9.27;80.37
70867;HTU21D;58487;53.474;49.470;2024-01-27T03:04:52;-9.19;80.51
70867;HTU21D;58487;53.474;49.470;2024-01-27T03:07:19;-9.12;78.44
70867;HTU21D;58487;53.474;49.470;2024-01-27T03:09:45;-9.25;79.99
70867;HTU21D;58487;53.474;49.470;2024-01-27T03:12:11;-9.16;78.72
70867;HTU21D;58487;53.474;49.470;2024-01-27T03:14:38;-9.13;82.07
70867;HTU21D;58487;53.474;49.470;2024-01-27T03:17:07;-9.08;79.46
70867;HTU21D;58487;53.474;49.470;2024-01-27T03:19:33;-9.10;78.69
70867;HTU21D;58487;53.474;49.470;2024-01-27T03:21:59;-8.97;80.47
70867;HTU21D;58487;53.474;49.470;2024-01-27T03:24:26;-8.79;80.22
70867;HTU21D;58487;53.474;49.470;2024-01-27T03:26:52;-8.80;80.86
70867;HTU21D;58487;53.474;49.470;2024-01-27T03:29:18;-8.68;81.70
70867;HTU21D;58487;53.474;49.470;2024-01-27T03:31:44;-8.63;81.71
70867;HTU21D;58487;53.474;49.470;2024-01-27T03:34:11;-8.75;79.41
70867;HTU21D;58487;53.474;49.470;2024-01-27T03:36:37;-8.68;82.36
70867;HTU21D;58487;53.474;49.470;2024-01-27T03:39:03;-8.65;80.88
70867;HTU21D;58487;53.474;49.470;2024-01-27T03:41:30;-8.65;81.39
70867;HTU21D;58487;53.474;49.470;2024-01-27T03:43:56;-8.58;81.60
70867;HTU21D;58487;53.474;49.470;2024-01-27T03:46:22;-8.56;84.05
70867;HTU21D;58487;53.474;49.470;2024-01-27T03:48:48;-8.54;82.36
70867;HTU21D;58487;53.474;49.470;2024-01-27T03:51:14;-8.48;82.02
70867;HTU21D;58487;53.474;49.470;2024-01-27T03:53:40;-8.52;83.49
70867;HTU21D;58487;53.474;49.470;2024-01-27T03:56:06;-8.51;83.09
70867;HTU21D;58487;53.474;49.470;2024-01-27T03:58:32;-8.55;82.12
70867;HTU21D;58487;53.474;49.470;2024-01-27T04:00:58;-8.52;80.79
70867;HTU21D;58487;53.474;49.470;2024-01-27T04:03:24;-8.46;80.43
70867;HTU21D;58487;53.474;49.470;2024-01-27T04:05:50;-8.45;82.04
70867;HTU21D;58487;53.474;49.470;2024-01-27T04:08:16;-8.45;81.69
70867;HTU21D;58487;53.474;49.470;2024-01-27T04:10:42;-8.42;80.28
70867;HTU21D;58487;53.474;49.470;2024-01-27T04:13:08;-8.29;80.91
70867;HTU21D;58487;53.474;49.470;2024-01-27T04:15:35;-8.31;79.78
70867;HTU21D;58487;53.474;49.470;2024-01-27T04:18:07;-8.42;79.37
70867;HTU21D;58487;53.474;49.470;2024-01-27T04:20:34;-8.49;82.23
70867;HTU21D;58487;53.474;49.470;2024-01-27T04:23:01;-8.77;82.26
70867;HTU21D;58487;53.474;49.470;2024-01-27T04:25:27;-8.89;82.22
70867;HTU21D;58487;53.474;49.470;2024-01-27T04:27:53;-8.83;82.71
70867;HTU21D;58487;53.474;49.470;2024-01-27T04:30:19;-8.86;82.55
70867;HTU21D;58487;53.474;49.470;2024-01-27T04:32:45;-9.03;83.29
70867;HTU21D;58487;53.474;49.470;2024-01-27T04:35:12;-9.12;83.15
70867;HTU21D;58487;53.474;49.470;2024-01-27T04:37:38;-9.08;80.96
70867;HTU21D;58487;53.474;49.470;2024-01-27T04:40:05;-9.03;82.02
70867;HTU21D;58487;53.474;49.470;2024-01-27T04:42:34;-9.05;79.95
70867;HTU21D;58487;53.474;49.470;2024-01-27T04:45:01;-8.97;80.14
70867;HTU21D;58487;53.474;49.470;2024-01-27T04:47:27;-8.90;79.13
70867;HTU21D;58487;53.474;49.470;2024-01-27T04:49:53;-8.84;80.04
70867;HTU21D;58487;53.474;49.470;2024-01-27T04:52:20;-8.77;79.37
70867;HTU21D;58487;53.474;49.470;2024-01-27T04:54:46;-8.82;81.95
70867;HTU21D;58487;53.474;49.470;2024-01-27T04:57:12;-8.78;78.82
70867;HTU21D;58487;53.474;49.470;2024-01-27T04:59:39;-8.67;79.17
70867;HTU21D;58487;53.474;49.470;2024-01-27T05:02:05;-8.66;78.23
70867;HTU21D;58487;53.474;49.470;2024-01-27T05:04:31;-8.54;80.41
70867;HTU21D;58487;53.474;49.470;2024-01-27T05:06:57;-8.48;79.75
70867;HTU21D;58487;53.474;49.470;2024-01-27T05:09:23;-8.44;79.96
70867;HTU21D;58487;53.474;49.470;2024-01-27T05:11:49;-8.29;79.01
70867;HTU21D;58487;53.474;49.470;2024-01-27T05:14:17;-8.31;79.83
70867;HTU21D;58487;53.474;49.470;2024-01-27T05:16:43;-8.35;80.15
70867;HTU21D;58487;53.474;49.470;2024-01-27T05:19:10;-8.23;77.95
70867;HTU21D;58487;53.474;49.470;2024-01-27T05:21:37;-8.24;77.58
70867;HTU21D;58487;53.474;49.470;2024-01-27T05:24:04;-8.23;79.81
70867;HTU21D;58487;53.474;49.470;2024-01-27T05:26:30;-8.19;82.87
70867;HTU21D;58487;53.474;49.470;2024-01-27T05:28:56;-8.18;79.93
70867;HTU21D;58487;53.474;49.470;2024-01-27T05:31:22;-8.09;80.44
70867;HTU21D;58487;53.474;49.470;2024-01-27T05:33:48;-8.04;79.88
70867;HTU21D;58487;53.474;49.470;2024-01-27T05:36:14;-8.03;80.11
70867;HTU21D;58487;53.474;49.470;2024-01-27T05:38:40;-7.98;78.89
70867;HTU21D;58487;53.474;49.470;2024-01-27T05:41:06;-8.03;78.76
70867;HTU21D;58487;53.474;49.470;2024-01-27T05:43:32;-7.96;80.02
70867;HTU21D;58487;53.474;49.470;2024-01-27T05:45:58;-8.00;79.96
70867;HTU21D;58487;53.474;49.470;2024-01-27T05:48:25;-7.91;78.66
70867;HTU21D;58487;53.474;49.470;2024-01-27T05:51:00;-7.87;79.24
70867;HTU21D;58487;53.474;49.470;2024-01-27T05:53:27;-7.84;77.60
70867;HTU21D;58487;53.474;49.470;2024-01-27T05:55:54;-7.87;78.17
70867;HTU21D;58487;53.474;49.470;2024-01-27T05:58:20;-7.82;79.33
70867;HTU21D;58487;53.474;49.470;2024-01-27T06:00:49;-7.85;79.52
70867;HTU21D;58487;53.474;49.470;2024-01-27T06:03:16;-7.74;78.43
70867;HTU21D;58487;53.474;49.470;2024-01-27T06:05:43;-7.71;78.26
70867;HTU21D;58487;53.474;49.470;2024-01-27T06:08:09;-7.74;79.21
70867;HTU21D;58487;53.474;49.470;2024-01-27T06:10:35;-7.71;79.13
70867;HTU21D;58487;53.474;49.470;2024-01-27T06:13:04;-7.90;78.86
70867;HTU21D;58487;53.474;49.470;2024-01-27T06:15:31;-8.10;81.33
70867;HTU21D;58487;53.474;49.470;2024-01-27T06:17:57;-8.12;80.11
70867;HTU21D;58487;53.474;49.470;2024-01-27T06:20:23;-7.98;79.46
70867;HTU21D;58487;53.474;49.470;2024-01-27T06:22:49;-7.93;83.09
70867;HTU21D;58487;53.474;49.470;2024-01-27T06:25:15;-7.78;80.26
70867;HTU21D;58487;53.474;49.470;2024-01-27T06:27:43;-7.91;81.63
70867;HTU21D;58487;53.474;49.470;2024-01-27T06:30:10;-7.81;79.76
70867;HTU21D;58487;53.474;49.470;2024-01-27T06:32:36;-7.70;81.56
70867;HTU21D;58487;53.474;49.470;2024-01-27T06:35:03;-7.56;81.48
70867;HTU21D;58487;53.474;49.470;2024-01-27T06:37:30;-7.64;81.11
70867;HTU21D;58487;53.474;49.470;2024-01-27T06:39:55;-7.69;81.79
70867;HTU21D;58487;53.474;49.470;2024-01-27T06:42:21;-7.44;82.40
70867;HTU21D;58487;53.474;49.470;2024-01-27T06:44:47;-7.27;83.26
70867;HTU21D;58487;53.474;49.470;2024-01-27T06:47:15;-7.16;80.03
70867;HTU21D;58487;53.474;49.470;2024-01-27T06:49:41;-7.09;81.43
70867;HTU21D;58487;53.474;49.470;2024-01-27T06:52:07;-7.00;81.97
70867;HTU21D;58487;53.474;49.470;2024-01-27T06:54:33;-6.86;82.10
70867;HTU21D;58487;53.474;49.470;2024-01-27T06:57:00;-6.83;79.63
70867;HTU21D;58487;53.474;49.470;2024-01-27T06:59:26;-6.80;82.84
70867;HTU21D;58487;53.474;49.470;2024-01-27T07:01:52;-7.02;82.15
70867;HTU21D;58487;53.474;49.470;2024-01-27T07:04:18;-6.93;80.88
70867;HTU21D;58487;53.474;49.470;2024-01-27T07:06:44;-6.82;80.60
70867;HTU21D;58487;53.474;49.470;2024-01-27T07:09:11;-6.71;80.60
70867;HTU21D;58487;53.474;49.470;2024-01-27T07:11:38;-6.48;80.65
70867;HTU21D;58487;53.474;49.470;2024-01-27T07:14:04;-6.48;80.66
70867;HTU21D;58487;53.474;49.470;2024-01-27T07:16:30;-6.44;81.40
70867;HTU21D;58487;53.474;49.470;2024-01-27T07:18:58;-6.46;80.99
70867;HTU21D;58487;53.474;49.470;2024-01-27T07:21:24;-6.42;81.90
70867;HTU21D;58487;53.474;49.470;2024-01-27T07:23:52;-6.46;82.23
70867;HTU21D;58487;53.474;49.470;2024-01-27T07:26:19;-6.44;82.98
70867;HTU21D;58487;53.474;49.470;2024-01-27T07:28:45;-6.36;82.78
70867;HTU21D;58487;53.474;49.470;2024-01-27T07:31:13;-6.31;80.27
70867;HTU21D;58487;53.474;49.470;2024-01-27T07:33:39;-6.24;82.91
70867;HTU21D;58487;53.474;49.470;2024-01-27T07:36:05;-6.15;81.49
70867;HTU21D;58487;53.474;49.470;2024-01-27T07:38:31;-6.23;81.06
70867;HTU21D;58487;53.474;49.470;2024-01-27T07:40:57;-6.16;83.73
70867;HTU21D;58487;53.474;49.470;2024-01-27T07:43:25;-6.09;82.43
70867;HTU21D;58487;53.474;49.470;2024-01-27T07:45:52;-6.00;82.57
70867;HTU21D;58487;53.474;49.470;2024-01-27T07:48:19;-5.90;80.72
70867;HTU21D;58487;53.474;49.470;2024-01-27T07:50:45;-5.78;80.71
70867;HTU21D;58487;53.474;49.470;2024-01-27T07:53:17;-5.69;81.26
70867;HTU21D;58487;53.474;49.470;2024-01-27T07:55:44;-5.56;80.49
70867;HTU21D;58487;53.474;49.470;2024-01-27T07:58:10;-5.40;81.33
70867;HTU21D;58487;53.474;49.470;2024-01-27T08:00:37;-5.48;80.50
70867;HTU21D;58487;53.474;49.470;2024-01-27T08:03:04;-5.47;79.14
70867;HTU21D;58487;53.474;49.470;2024-01-27T08:05:31;-5.53;79.91
70867;HTU21D;58487;53.474;49.470;2024-01-27T08:07:57;-5.62;80.28
70867;HTU21D;58487;53.474;49.470;2024-01-27T08:10:23;-6.00;79.49
70867;HTU21D;58487;53.474;49.470;2024-01-27T08:12:49;-6.08;80.30
70867;HTU21D;58487;53.474;49.470;2024-01-27T08:15:16;-5.97;82.67
70867;HTU21D;58487;53.474;49.470;2024-01-27T08:17:42;-5.78;82.12
70867;HTU21D;58487;53.474;49.470;2024-01-27T08:20:08;-5.64;81.70
70867;HTU21D;58487;53.474;49.470;2024-01-27T08:22:35;-5.40;80.56
70867;HTU21D;58487;53.474;49.470;2024-01-27T08:25:01;-5.31;80.14
70867;HTU21D;58487;53.474;49.470;2024-01-27T08:27:28;-5.23;80.14
70867;HTU21D;58487;53.474;49.470;2024-01-27T08:29:54;-5.22;80.20
70867;HTU21D;58487;53.474;49.470;2024-01-27T08:32:20;-5.17;80.29
70867;HTU21D;58487;53.474;49.470;2024-01-27T08:34:46;-5.05;77.52
70867;HTU21D;58487;53.474;49.470;2024-01-27T08:37:22;-5.03;77.36
70867;HTU21D;58487;53.474;49.470;2024-01-27T08:39:51;-5.04;77.07
70867;HTU21D;58487;53.474;49.470;2024-01-27T08:42:17;-5.31;78.67
70867;HTU21D;58487;53.474;49.470;2024-01-27T08:44:44;-5.16;79.59
70867;HTU21D;58487;53.474;49.470;2024-01-27T08:47:10;-5.11;78.93
70867;HTU21D;58487;53.474;49.470;2024-01-27T08:49:36;-5.58;80.78
70867;HTU21D;58487;53.474;49.470;2024-01-27T08:52:03;-5.73;79.55
70867;HTU21D;58487;53.474;49.470;2024-01-27T08:54:29;-5.96;82.33
70867;HTU21D;58487;53.474;49.470;2024-01-27T08:56:55;-6.04;81.33
70867;HTU21D;58487;53.474;49.470;2024-01-27T08:59:21;-6.11;81.01
70867;HTU21D;58487;53.474;49.470;2024-01-27T09:01:47;-6.17;81.20
70867;HTU21D;58487;53.474;49.470;2024-01-27T09:04:14;-6.27;82.08
70867;HTU21D;58487;53.474;49.470;2024-01-27T09:06:40;-6.29;81.30
70867;HTU21D;58487;53.474;49.470;2024-01-27T09:09:06;-6.23;80.00
70867;HTU21D;58487;53.474;49.470;2024-01-27T09:11:33;-6.30;80.73
70867;HTU21D;58487;53.474;49.470;2024-01-27T09:14:00;-6.30;81.86
70867;HTU21D;58487;53.474;49.470;2024-01-27T09:16:27;-6.18;83.61
70867;HTU21D;58487;53.474;49.470;2024-01-27T09:18:53;-6.11;84.42
70867;HTU21D;58487;53.474;49.470;2024-01-27T09:21:19;-6.15;82.04
70867;HTU21D;58487;53.474;49.470;2024-01-27T09:23:48;-6.05;84.34
70867;HTU21D;58487;53.474;49.470;2024-01-27T09:26:15;-5.90;82.73
70867;HTU21D;58487;53.474;49.470;2024-01-27T09:28:44;-5.82;81.20
70867;HTU21D;58487;53.474;49.470;2024-01-27T09:31:13;-5.77;82.28
70867;HTU21D;58487;53.474;49.470;2024-01-27T09:33:40;-5.82;82.74
70867;HTU21D;58487;53.474;49.470;2024-01-27T09:36:07;-5.69;80.77
70867;HTU21D;58487;53.474;49.470;2024-01-27T09:38:33;-5.76;79.75
70867;HTU21D;58487;53.474;49.470;2024-01-27T09:40:59;-5.65;81.38
70867;HTU21D;58487;53.474;49.470;2024-01-27T09:43:28;-5.61;80.35
70867;HTU21D;58487;53.474;49.470;2024-01-27T09:45:54;-5.88;81.07
70867;HTU21D;58487;53.474;49.470;2024-01-27T09:48:21;-5.92;82.40
70867;HTU21D;58487;53.474;49.470;2024-01-27T09:50:48;-6.02;81.26
70867;HTU21D;58487;53.474;49.470;2024-01-27T09:53:15;-5.96;82.39
70867;HTU21D;58487;53.474;49.470;2024-01-27T09:55:43;-5.76;81.71
70867;HTU21D;58487;53.474;49.470;2024-01-27T09:58:11;-5.68;81.49
70867;HTU21D;58487;53.474;49.470;2024-01-27T10:00:38;-5.71;80.11
70867;HTU21D;58487;53.474;49.470;2024-01-27T10:03:06;-5.74;81.53
70867;HTU21D;58487;53.474;49.470;2024-01-27T10:05:34;-5.76;80.61
70867;HTU21D;58487;53.474;49.470;2024-01-27T10:08:01;-5.72;81.68
70867;HTU21D;58487;53.474;49.470;2024-01-27T10:10:29;-5.58;81.96
70867;HTU21D;58487;53.474;49.470;2024-01-27T10:12:58;-5.48;82.04
70867;HTU21D;58487;53.474;49.470;2024-01-27T10:15:25;-5.44;81.57
70867;HTU21D;58487;53.474;49.470;2024-01-27T10:18:07;-5.27;80.89
70867;HTU21D;58487;53.474;49.470;2024-01-27T10:20:36;-5.20;82.18
70867;HTU21D;58487;53.474;49.470;2024-01-27T10:23:11;-5.00;79.36
70867;HTU21D;58487;53.474;49.470;2024-01-27T10:25:40;-4.78;79.00
70867;HTU21D;58487;53.474;49.470;2024-01-27T10:28:07;-4.83;78.59
70867;HTU21D;58487;53.474;49.470;2024-01-27T10:30:37;-4.70;78.00
70867;HTU21D;58487;53.474;49.470;2024-01-27T10:33:04;-4.66;78.68
70867;HTU21D;58487;53.474;49.470;2024-01-27T10:35:30;-4.65;79.28
70867;HTU21D;58487;53.474;49.470;2024-01-27T10:37:57;-4.61;78.90
70867;HTU21D;58487;53.474;49.470;2024-01-27T10:40:24;-4.51;78.85
70867;HTU21D;58487;53.474;49.470;2024-01-27T10:43:07;-4.45;78.63
70867;HTU21D;58487;53.474;49.470;2024-01-27T10:45:39;-4.49;79.54
70867;HTU21D;58487;53.474;49.470;2024-01-27T10:48:10;-4.48;81.45
70867;HTU21D;58487;53.474;49.470;2024-01-27T10:50:40;-4.50;79.21
70867;HTU21D;58487;53.474;49.470;2024-01-27T10:53:23;-4.49;78.56
70867;HTU21D;58487;53.474;49.470;2024-01-27T10:55:57;-4.67;78.82
70867;HTU21D;58487;53.474;49.470;2024-01-27T10:58:24;-4.67;81.14
70867;HTU21D;58487;53.474;49.470;2024-01-27T11:00:53;-4.61;83.92
70867;HTU21D;58487;53.474;49.470;2024-01-27T11:03:23;-4.70;79.43
70867;HTU21D;58487;53.474;49.470;2024-01-27T11:05:54;-4.72;81.32
70867;HTU21D;58487;53.474;49.470;2024-01-27T11:08:21;-4.61;81.20
70867;HTU21D;58487;53.474;49.470;2024-01-27T11:10:56;-4.70;80.47
70867;HTU21D;58487;53.474;49.470;2024-01-27T11:13:52;-4.66;77.92
70867;HTU21D;58487;53.474;49.470;2024-01-27T11:16:19;-4.67;79.43
70867;HTU21D;58487;53.474;49.470;2024-01-27T11:18:47;-4.58;81.06
70867;HTU21D;58487;53.474;49.470;2024-01-27T11:21:15;-4.60;80.73
70867;HTU21D;58487;53.474;49.470;2024-01-27T11:23:45;-4.50;80.91
70867;HTU21D;58487;53.474;49.470;2024-01-27T11:26:19;-4.42;79.68
70867;HTU21D;58487;53.474;49.470;2024-01-27T11:28:46;-4.48;79.20
70867;HTU21D;58487;53.474;49.470;2024-01-27T11:31:12;-4.53;81.97
70867;HTU21D;58487;53.474;49.470;2024-01-27T11:33:46;-4.55;79.91
70867;HTU21D;58487;53.474;49.470;2024-01-27T11:36:26;-4.42;80.67
70867;HTU21D;58487;53.474;49.470;2024-01-27T11:38:55;-4.41;79.60
70867;HTU21D;58487;53.474;49.470;2024-01-27T11:41:29;-4.44;81.78
70867;HTU21D;58487;53.474;49.470;2024-01-27T11:43:57;-4.36;80.36
70867;HTU21D;58487;53.474;49.470;2024-01-27T11:46:26;-4.36;81.75
70867;HTU21D;58487;53.474;49.470;2024-01-27T11:48:52;-4.37;81.60
70867;HTU21D;58487;53.474;49.470;2024-01-27T11:51:19;-4.48;79.67
70867;HTU21D;58487;53.474;49.470;2024-01-27T11:53:45;-4.48;81.46
70867;HTU21D;58487;53.474;49.470;2024-01-27T11:56:13;-4.43;80.01
70867;HTU21D;58487;53.474;49.470;2024-01-27T11:58:46;-4.51;80.29
70867;HTU21D;58487;53.474;49.470;2024-01-27T12:01:14;-4.52;78.16
70867;HTU21D;58487;53.474;49.470;2024-01-27T12:03:40;-4.70;80.99
70867;HTU21D;58487;53.474;49.470;2024-01-27T12:06:07;-4.79;80.34
70867;HTU21D;58487;53.474;49.470;2024-01-27T12:08:35;-4.80;81.10
70867;HTU21D;58487;53.474;49.470;2024-01-27T12:11:02;-4.81;83.20
70867;HTU21D;58487;53.474;49.470;2024-01-27T12:13:28;-4.79;83.29
70867;HTU21D;58487;53.474;49.470;2024-01-27T12:15:54;-4.78;82.95
70867;HTU21D;58487;53.474;49.470;2024-01-27T12:18:21;-4.74;84.38
70867;HTU21D;58487;53.474;49.470;2024-01-27T12:20:47;-4.80;83.11
70867;HTU21D;58487;53.474;49.470;2024-01-27T12:23:14;-4.88;83.68
70867;HTU21D;58487;53.474;49.470;2024-01-27T12:25:42;-5.03;83.54
70867;HTU21D;58487;53.474;49.470;2024-01-27T12:28:09;-5.18;86.75
70867;HTU21D;58487;53.474;49.470;2024-01-27T12:30:35;-5.26;82.35
70867;HTU21D;58487;53.474;49.470;2024-01-27T12:33:09;-5.37;84.15
70867;HTU21D;58487;53.474;49.470;2024-01-27T12:35:37;-5.44;83.79
70867;HTU21D;58487;53.474;49.470;2024-01-27T12:38:05;-5.49;81.33
70867;HTU21D;58487;53.474;49.470;2024-01-27T12:40:32;-5.48;82.95
70867;HTU21D;58487;53.474;49.470;2024-01-27T12:42:58;-5.53;80.72
70867;HTU21D;58487;53.474;49.470;2024-01-27T12:45:24;-5.40;83.25
70867;HTU21D;58487;53.474;49.470;2024-01-27T12:47:50;-5.35;82.94
70867;HTU21D;58487;53.474;49.470;2024-01-27T12:50:17;-5.38;84.01
70867;HTU21D;58487;53.474;49.470;2024-01-27T12:52:46;-5.49;83.82
70867;HTU21D;58487;53.474;49.470;2024-01-27T12:55:12;-5.67;83.52
70867;HTU21D;58487;53.474;49.470;2024-01-27T12:57:42;-5.76;84.44
70867;HTU21D;58487;53.474;49.470;2024-01-27T13:00:09;-5.78;85.00
70867;HTU21D;58487;53.474;49.470;2024-01-27T13:02:36;-5.85;86.73
70867;HTU21D;58487;53.474;49.470;2024-01-27T13:05:03;-5.97;86.39
70867;HTU21D;58487;53.474;49.470;2024-01-27T13:07:30;-5.99;88.83
70867;HTU21D;58487;53.474;49.470;2024-01-27T13:09:56;-5.92;85.62
70867;HTU21D;58487;53.474;49.470;2024-01-27T13:12:23;-5.85;85.95
70867;HTU21D;58487;53.474;49.470;2024-01-27T13:14:49;-5.82;86.40
70867;HTU21D;58487;53.474;49.470;2024-01-27T13:17:15;-5.85;83.18
70867;HTU21D;58487;53.474;49.470;2024-01-27T13:19:43;-5.77;81.50
70867;HTU21D;58487;53.474;49.470;2024-01-27T13:22:09;-5.67;88.89
70867;HTU21D;58487;53.474;49.470;2024-01-27T13:24:35;-5.75;85.71
70867;HTU21D;58487;53.474;49.470;2024-01-27T13:27:01;-5.69;84.75
70867;HTU21D;58487;53.474;49.470;2024-01-27T13:29:28;-5.71;83.58
70867;HTU21D;58487;53.474;49.470;2024-01-27T13:31:54;-5.64;84.22
70867;HTU21D;58487;53.474;49.470;2024-01-27T13:34:23;-5.65;88.41
70867;HTU21D;58487;53.474;49.470;2024-01-27T13:36:49;-5.70;86.22
70867;HTU21D;58487;53.474;49.470;2024-01-27T13:39:16;-5.77;87.50
70867;HTU21D;58487;53.474;49.470;2024-01-27T13:41:42;-5.90;87.84
70867;HTU21D;58487;53.474;49.470;2024-01-27T13:44:08;-5.91;86.85
70867;HTU21D;58487;53.474;49.470;2024-01-27T13:46:37;-5.96;86.18
70867;HTU21D;58487;53.474;49.470;2024-01-27T13:49:04;-6.07;87.28
70867;HTU21D;58487;53.474;49.470;2024-01-27T13:51:30;-6.13;87.11
70867;HTU21D;58487;53.474;49.470;2024-01-27T13:53:57;-6.26;89.76
70867;HTU21D;58487;53.474;49.470;2024-01-27T13:56:23;-6.38;87.28
70867;HTU21D;58487;53.474;49.470;2024-01-27T13:58:50;-6.52;87.67
70867;HTU21D;58487;53.474;49.470;2024-01-27T14:01:17;-6.71;89.62
70867;HTU21D;58487;53.474;49.470;2024-01-27T14:03:48;-6.77;87.43
70867;HTU21D;58487;53.474;49.470;2024-01-27T14:06:14;-6.86;88.43
70867;HTU21D;58487;53.474;49.470;2024-01-27T14:08:40;-6.88;88.44
70867;HTU21D;58487;53.474;49.470;2024-01-27T14:11:07;-6.86;85.08
70867;HTU21D;58487;53.474;49.470;2024-01-27T14:13:33;-6.82;87.78
70867;HTU21D;58487;53.474;49.470;2024-01-27T14:16:00;-6.85;88.83
70867;HTU21D;58487;53.474;49.470;2024-01-27T14:18:26;-6.83;90.61
70867;HTU21D;58487;53.474;49.470;2024-01-27T14:20:53;-6.83;89.31
70867;HTU21D;58487;53.474;49.470;2024-01-27T14:23:22;-6.86;87.87
70867;HTU21D;58487;53.474;49.470;2024-01-27T14:25:49;-6.88;87.94
70867;HTU21D;58487;53.474;49.470;2024-01-27T14:28:15;-6.83;87.56
70867;HTU21D;58487;53.474;49.470;2024-01-27T14:30:43;-6.90;88.54
70867;HTU21D;58487;53.474;49.470;2024-01-27T14:33:11;-6.89;89.47
70867;HTU21D;58487;53.474;49.470;2024-01-27T14:35:39;-6.87;87.22
70867;HTU21D;58487;53.474;49.470;2024-01-27T14:38:07;-6.81;87.14
70867;HTU21D;58487;53.474;49.470;2024-01-27T14:40:35;-6.74;85.30
70867;HTU21D;58487;53.474;49.470;2024-01-27T14:43:03;-6.62;87.11
70867;HTU21D;58487;53.474;49.470;2024-01-27T14:45:47;-6.52;87.03
70867;HTU21D;58487;53.474;49.470;2024-01-27T14:48:14;-6.46;86.54
70867;HTU21D;58487;53.474;49.470;2024-01-27T14:50:44;-6.43;90.33
70867;HTU21D;58487;53.474;49.470;2024-01-27T14:53:10;-6.44;89.83
70867;HTU21D;58487;53.474;49.470;2024-01-27T14:55:38;-6.36;86.81
70867;HTU21D;58487;53.474;49.470;2024-01-27T14:58:06;-6.38;85.40
70867;HTU21D;58487;53.474;49.470;2024-01-27T15:00:32;-6.31;89.02
70867;HTU21D;58487;53.474;49.470;2024-01-27T15:02:59;-6.32;84.84